sensor_id;sensor_type;location;lat;lon;timestamp;P1;durP1;ratioP1;P2;durP2;ratioP2
62724;SDS011;49026;52.600;4.694;2022-11-15T00:00:23;38.60;;;20.30;;
62724;SDS011;49026;52.600;4.694;2022-11-15T00:02:48;41.85;;;20.10;;
62724;SDS011;49026;52.600;4.694;2022-11-15T00:05:14;42.30;;;22.52;;
62724;SDS011;49026;52.600;4.694;2022-11-15T00:07:39;41.08;;;20.00;;
62724;SDS011;49026;52.600;4.694;2022-11-15T00:10:04;40.28;;;21.20;;
62724;SDS011;49026;52.600;4.694;2022-11-15T00:12:30;42.22;;;20.42;;
62724;SDS011;49026;52.600;4.694;2022-11-15T00:14:55;39.45;;;19.17;;
62724;SDS011;49026;52.600;4.694;2022-11-15T00:17:21;27.48;;;13.45;;
62724;SDS011;49026;52.600;4.694;2022-11-15T00:19:46;27.80;;;14.10;;
62724;SDS011;49026;52.600;4.694;2022-11-15T00:22:12;37.47;;;17.42;;
62724;SDS011;49026;52.600;4.694;2022-11-15T00:24:37;43.10;;;19.80;;
62724;SDS011;49026;52.600;4.694;2022-11-15T00:27:02;49.90;;;19.58;;
62724;SDS011;49026;52.600;4.694;2022-11-15T00:29:28;39.38;;;18.45;;
62724;SDS011;49026;52.600;4.694;2022-11-15T00:31:53;47.47;;;20.08;;
62724;SDS011;49026;52.600;4.694;2022-11-15T00:34:18;44.75;;;20.52;;
62724;SDS011;49026;52.600;4.694;2022-11-15T00:36:44;40.50;;;18.95;;
62724;SDS011;49026;52.600;4.694;2022-11-15T00:39:09;42.55;;;19.40;;
62724;SDS011;49026;52.600;4.694;2022-11-15T00:41:34;52.80;;;17.80;;
62724;SDS011;49026;52.600;4.694;2022-11-15T00:44:00;39.75;;;16.90;;
62724;SDS011;49026;52.600;4.694;2022-11-15T00:46:25;46.10;;;18.75;;
62724;SDS011;49026;52.600;4.694;2022-11-15T00:48:50;50.33;;;21.58;;
62724;SDS011;49026;52.600;4.694;2022-11-15T00:51:16;42.17;;;18.10;;
62724;SDS011;49026;52.600;4.694;2022-11-15T00:53:41;34.80;;;15.30;;
62724;SDS011;49026;52.600;4.694;2022-11-15T00:56:06;51.97;;;20.00;;
62724;SDS011;49026;52.600;4.694;2022-11-15T00:58:32;53.55;;;19.85;;
62724;SDS011;49026;52.600;4.694;2022-11-15T01:01:05;37.83;;;14.85;;
62724;SDS011;49026;52.600;4.694;2022-11-15T01:03:34;45.05;;;20.55;;
62724;SDS011;49026;52.600;4.694;2022-11-15T01:06:00;78.07;;;21.42;;
62724;SDS011;49026;52.600;4.694;2022-11-15T01:08:26;43.08;;;19.70;;
62724;SDS011;49026;52.600;4.694;2022-11-15T01:10:51;40.42;;;16.13;;
62724;SDS011;49026;52.600;4.694;2022-11-15T01:13:16;41.67;;;20.00;;
62724;SDS011;49026;52.600;4.694;2022-11-15T01:15:42;50.65;;;21.10;;
62724;SDS011;49026;52.600;4.694;2022-11-15T01:18:08;40.00;;;16.17;;
62724;SDS011;49026;52.600;4.694;2022-11-15T01:20:33;40.35;;;18.48;;
62724;SDS011;49026;52.600;4.694;2022-11-15T01:22:59;51.88;;;20.92;;
62724;SDS011;49026;52.600;4.694;2022-11-15T01:25:24;46.35;;;20.05;;
62724;SDS011;49026;52.600;4.694;2022-11-15T01:27:49;49.70;;;21.50;;
62724;SDS011;49026;52.600;4.694;2022-11-15T01:30:15;50.88;;;21.67;;
62724;SDS011;49026;52.600;4.694;2022-11-15T01:32:40;40.20;;;17.42;;
62724;SDS011;49026;52.600;4.694;2022-11-15T01:35:05;52.33;;;23.27;;
62724;SDS011;49026;52.600;4.694;2022-11-15T01:37:31;44.28;;;19.80;;
62724;SDS011;49026;52.600;4.694;2022-11-15T01:39:56;51.80;;;20.08;;
62724;SDS011;49026;52.600;4.694;2022-11-15T01:42:22;26.02;;;13.05;;
62724;SDS011;49026;52.600;4.694;2022-11-15T01:44:47;36.70;;;16.60;;
62724;SDS011;49026;52.600;4.694;2022-11-15T01:47:17;52.20;;;20.10;;
62724;SDS011;49026;52.600;4.694;2022-11-15T01:49:53;46.75;;;21.35;;
62724;SDS011;49026;52.600;4.694;2022-11-15T01:52:20;58.30;;;23.23;;
62724;SDS011;49026;52.600;4.694;2022-11-15T01:54:50;51.13;;;20.60;;
62724;SDS011;49026;52.600;4.694;2022-11-15T01:57:25;52.20;;;20.42;;
62724;SDS011;49026;52.600;4.694;2022-11-15T01:59:50;49.30;;;21.52;;
62724;SDS011;49026;52.600;4.694;2022-11-15T02:02:15;45.38;;;19.65;;
62724;SDS011;49026;52.600;4.694;2022-11-15T02:04:42;62.85;;;23.35;;
62724;SDS011;49026;52.600;4.694;2022-11-15T02:07:12;33.05;;;14.18;;
62724;SDS011;49026;52.600;4.694;2022-11-15T02:09:40;49.53;;;20.70;;
62724;SDS011;49026;52.600;4.694;2022-11-15T02:12:07;53.65;;;22.10;;
62724;SDS011;49026;52.600;4.694;2022-11-15T02:14:35;50.63;;;21.27;;
62724;SDS011;49026;52.600;4.694;2022-11-15T02:25:20;40.13;;;16.48;;
62724;SDS011;49026;52.600;4.694;2022-11-15T02:27:57;48.42;;;21.33;;
62724;SDS011;49026;52.600;4.694;2022-11-15T02:36:14;56.47;;;23.33;;
62724;SDS011;49026;52.600;4.694;2022-11-15T02:41:19;34.35;;;14.10;;
62724;SDS011;49026;52.600;4.694;2022-11-15T02:43:54;54.15;;;22.25;;
62724;SDS011;49026;52.600;4.694;2022-11-15T02:49:14;46.03;;;20.88;;
62724;SDS011;49026;52.600;4.694;2022-11-15T02:51:40;33.53;;;14.18;;
62724;SDS011;49026;52.600;4.694;2022-11-15T02:54:12;31.52;;;15.18;;
62724;SDS011;49026;52.600;4.694;2022-11-15T02:56:40;44.15;;;18.48;;
62724;SDS011;49026;52.600;4.694;2022-11-15T03:02:00;58.53;;;21.05;;
62724;SDS011;49026;52.600;4.694;2022-11-15T03:04:53;43.83;;;19.33;;
62724;SDS011;49026;52.600;4.694;2022-11-15T03:09:57;55.55;;;21.67;;
62724;SDS011;49026;52.600;4.694;2022-11-15T03:15:00;39.33;;;17.02;;
62724;SDS011;49026;52.600;4.694;2022-11-15T03:17:30;62.45;;;20.98;;
62724;SDS011;49026;52.600;4.694;2022-11-15T03:20:01;46.88;;;19.80;;
62724;SDS011;49026;52.600;4.694;2022-11-15T03:22:30;45.75;;;19.40;;
62724;SDS011;49026;52.600;4.694;2022-11-15T03:27:33;76.07;;;22.70;;
62724;SDS011;49026;52.600;4.694;2022-11-15T03:30:04;41.35;;;16.42;;
62724;SDS011;49026;52.600;4.694;2022-11-15T03:32:32;56.75;;;22.17;;
62724;SDS011;49026;52.600;4.694;2022-11-15T03:37:34;48.75;;;18.08;;
62724;SDS011;49026;52.600;4.694;2022-11-15T03:40:11;34.93;;;14.27;;
62724;SDS011;49026;52.600;4.694;2022-11-15T03:43:40;74.85;;;23.48;;
62724;SDS011;49026;52.600;4.694;2022-11-15T03:45:53;48.25;;;19.38;;
62724;SDS011;49026;52.600;4.694;2022-11-15T03:48:24;35.00;;;13.70;;
62724;SDS011;49026;52.600;4.694;2022-11-15T03:50:55;50.10;;;15.90;;
62724;SDS011;49026;52.600;4.694;2022-11-15T03:53:21;69.57;;;21.05;;
62724;SDS011;49026;52.600;4.694;2022-11-15T03:55:46;68.05;;;23.10;;
62724;SDS011;49026;52.600;4.694;2022-11-15T03:58:12;77.50;;;24.52;;
62724;SDS011;49026;52.600;4.694;2022-11-15T04:00:37;55.45;;;22.50;;
62724;SDS011;49026;52.600;4.694;2022-11-15T04:03:02;57.85;;;22.30;;
62724;SDS011;49026;52.600;4.694;2022-11-15T04:05:28;63.28;;;21.48;;
62724;SDS011;49026;52.600;4.694;2022-11-15T04:07:53;38.70;;;17.63;;
62724;SDS011;49026;52.600;4.694;2022-11-15T04:10:18;48.67;;;21.92;;
62724;SDS011;49026;52.600;4.694;2022-11-15T04:12:44;74.07;;;19.05;;
62724;SDS011;49026;52.600;4.694;2022-11-15T04:15:13;56.72;;;23.52;;
62724;SDS011;49026;52.600;4.694;2022-11-15T04:17:44;57.58;;;24.30;;
62724;SDS011;49026;52.600;4.694;2022-11-15T04:20:13;50.50;;;21.83;;
62724;SDS011;49026;52.600;4.694;2022-11-15T04:22:57;51.10;;;23.08;;
62724;SDS011;49026;52.600;4.694;2022-11-15T04:25:43;55.25;;;22.60;;
62724;SDS011;49026;52.600;4.694;2022-11-15T04:28:09;59.03;;;23.90;;
62724;SDS011;49026;52.600;4.694;2022-11-15T04:30:35;57.95;;;23.88;;
62724;SDS011;49026;52.600;4.694;2022-11-15T04:33:01;62.40;;;23.98;;
62724;SDS011;49026;52.600;4.694;2022-11-15T04:35:26;64.53;;;23.02;;
62724;SDS011;49026;52.600;4.694;2022-11-15T04:37:52;43.97;;;18.45;;
62724;SDS011;49026;52.600;4.694;2022-11-15T04:40:18;44.97;;;19.38;;
62724;SDS011;49026;52.600;4.694;2022-11-15T04:42:45;56.90;;;22.95;;
62724;SDS011;49026;52.600;4.694;2022-11-15T04:45:10;55.60;;;22.60;;
62724;SDS011;49026;52.600;4.694;2022-11-15T04:47:36;65.20;;;26.90;;
62724;SDS011;49026;52.600;4.694;2022-11-15T04:50:01;74.82;;;26.35;;
62724;SDS011;49026;52.600;4.694;2022-11-15T04:52:27;74.50;;;26.02;;
62724;SDS011;49026;52.600;4.694;2022-11-15T04:54:53;65.60;;;26.35;;
62724;SDS011;49026;52.600;4.694;2022-11-15T04:57:18;61.80;;;26.10;;
62724;SDS011;49026;52.600;4.694;2022-11-15T04:59:44;65.35;;;25.27;;
62724;SDS011;49026;52.600;4.694;2022-11-15T05:02:09;54.90;;;24.10;;
62724;SDS011;49026;52.600;4.694;2022-11-15T05:04:34;59.95;;;25.20;;
62724;SDS011;49026;52.600;4.694;2022-11-15T05:07:00;58.45;;;23.80;;
62724;SDS011;49026;52.600;4.694;2022-11-15T05:09:25;69.68;;;27.65;;
62724;SDS011;49026;52.600;4.694;2022-11-15T05:11:50;59.17;;;26.42;;
62724;SDS011;49026;52.600;4.694;2022-11-15T05:14:16;55.97;;;23.58;;
62724;SDS011;49026;52.600;4.694;2022-11-15T05:16:41;63.42;;;26.90;;
62724;SDS011;49026;52.600;4.694;2022-11-15T05:19:07;42.58;;;16.20;;
62724;SDS011;49026;52.600;4.694;2022-11-15T05:21:33;43.72;;;20.58;;
62724;SDS011;49026;52.600;4.694;2022-11-15T05:23:59;45.20;;;21.63;;
62724;SDS011;49026;52.600;4.694;2022-11-15T05:26:24;61.70;;;25.23;;
62724;SDS011;49026;52.600;4.694;2022-11-15T05:28:54;42.55;;;18.80;;
62724;SDS011;49026;52.600;4.694;2022-11-15T05:33:46;48.30;;;22.80;;
62724;SDS011;49026;52.600;4.694;2022-11-15T05:39:06;56.40;;;24.40;;
62724;SDS011;49026;52.600;4.694;2022-11-15T05:41:38;52.40;;;23.05;;
62724;SDS011;49026;52.600;4.694;2022-11-15T05:44:09;48.95;;;22.40;;
62724;SDS011;49026;52.600;4.694;2022-11-15T05:46:36;49.95;;;24.02;;
62724;SDS011;49026;52.600;4.694;2022-11-15T05:49:06;46.53;;;19.83;;
62724;SDS011;49026;52.600;4.694;2022-11-15T05:51:34;44.55;;;21.25;;
62724;SDS011;49026;52.600;4.694;2022-11-15T05:54:00;46.03;;;22.27;;
62724;SDS011;49026;52.600;4.694;2022-11-15T05:56:26;33.65;;;15.73;;
62724;SDS011;49026;52.600;4.694;2022-11-15T05:58:52;42.17;;;21.45;;
62724;SDS011;49026;52.600;4.694;2022-11-15T06:01:20;42.85;;;21.75;;
62724;SDS011;49026;52.600;4.694;2022-11-15T06:03:46;54.67;;;19.75;;
62724;SDS011;49026;52.600;4.694;2022-11-15T06:06:11;49.97;;;21.50;;
62724;SDS011;49026;52.600;4.694;2022-11-15T06:08:36;44.90;;;22.30;;
62724;SDS011;49026;52.600;4.694;2022-11-15T06:11:03;41.35;;;20.98;;
62724;SDS011;49026;52.600;4.694;2022-11-15T06:13:29;38.85;;;20.02;;
62724;SDS011;49026;52.600;4.694;2022-11-15T06:15:55;41.03;;;20.88;;
62724;SDS011;49026;52.600;4.694;2022-11-15T06:18:21;28.77;;;14.93;;
62724;SDS011;49026;52.600;4.694;2022-11-15T06:20:47;33.63;;;18.67;;
62724;SDS011;49026;52.600;4.694;2022-11-15T06:23:12;38.58;;;18.58;;
62724;SDS011;49026;52.600;4.694;2022-11-15T06:25:38;32.80;;;17.08;;
62724;SDS011;49026;52.600;4.694;2022-11-15T06:28:03;31.33;;;17.08;;
62724;SDS011;49026;52.600;4.694;2022-11-15T06:30:29;34.22;;;18.85;;
62724;SDS011;49026;52.600;4.694;2022-11-15T06:33:04;27.92;;;14.70;;
62724;SDS011;49026;52.600;4.694;2022-11-15T06:35:30;31.17;;;16.27;;
62724;SDS011;49026;52.600;4.694;2022-11-15T06:38:02;48.28;;;19.13;;
62724;SDS011;49026;52.600;4.694;2022-11-15T06:40:29;31.52;;;18.40;;
62724;SDS011;49026;52.600;4.694;2022-11-15T06:42:58;27.73;;;14.50;;
62724;SDS011;49026;52.600;4.694;2022-11-15T06:45:24;32.22;;;18.50;;
62724;SDS011;49026;52.600;4.694;2022-11-15T06:47:50;38.25;;;19.40;;
62724;SDS011;49026;52.600;4.694;2022-11-15T06:50:15;29.27;;;15.50;;
62724;SDS011;49026;52.600;4.694;2022-11-15T06:52:40;19.63;;;11.98;;
62724;SDS011;49026;52.600;4.694;2022-11-15T06:55:06;32.83;;;16.92;;
62724;SDS011;49026;52.600;4.694;2022-11-15T06:57:32;27.92;;;13.65;;
62724;SDS011;49026;52.600;4.694;2022-11-15T06:59:57;28.38;;;15.93;;
62724;SDS011;49026;52.600;4.694;2022-11-15T07:02:23;31.25;;;17.02;;
62724;SDS011;49026;52.600;4.694;2022-11-15T07:04:48;34.53;;;17.58;;
62724;SDS011;49026;52.600;4.694;2022-11-15T07:07:13;27.85;;;15.95;;
62724;SDS011;49026;52.600;4.694;2022-11-15T07:09:39;27.63;;;15.07;;
62724;SDS011;49026;52.600;4.694;2022-11-15T07:12:04;25.13;;;13.90;;
62724;SDS011;49026;52.600;4.694;2022-11-15T07:14:30;25.90;;;13.30;;
62724;SDS011;49026;52.600;4.694;2022-11-15T07:16:55;31.90;;;13.45;;
62724;SDS011;49026;52.600;4.694;2022-11-15T07:19:20;31.98;;;14.25;;
62724;SDS011;49026;52.600;4.694;2022-11-15T07:21:46;25.10;;;13.52;;
62724;SDS011;49026;52.600;4.694;2022-11-15T07:24:11;25.92;;;13.25;;
62724;SDS011;49026;52.600;4.694;2022-11-15T07:26:37;25.13;;;12.25;;
62724;SDS011;49026;52.600;4.694;2022-11-15T07:29:02;22.65;;;11.40;;
62724;SDS011;49026;52.600;4.694;2022-11-15T07:31:27;28.05;;;12.15;;
62724;SDS011;49026;52.600;4.694;2022-11-15T07:33:53;23.00;;;13.27;;
62724;SDS011;49026;52.600;4.694;2022-11-15T07:36:18;16.20;;;10.23;;
62724;SDS011;49026;52.600;4.694;2022-11-15T07:38:43;20.38;;;12.77;;
62724;SDS011;49026;52.600;4.694;2022-11-15T07:41:09;21.48;;;10.93;;
62724;SDS011;49026;52.600;4.694;2022-11-15T07:43:34;21.50;;;12.05;;
62724;SDS011;49026;52.600;4.694;2022-11-15T07:46:04;26.63;;;13.32;;
62724;SDS011;49026;52.600;4.694;2022-11-15T07:48:32;22.17;;;11.55;;
62724;SDS011;49026;52.600;4.694;2022-11-15T07:50:57;26.58;;;11.50;;
62724;SDS011;49026;52.600;4.694;2022-11-15T07:53:23;23.20;;;11.63;;
62724;SDS011;49026;52.600;4.694;2022-11-15T07:55:48;16.95;;;10.30;;
62724;SDS011;49026;52.600;4.694;2022-11-15T07:58:13;24.08;;;11.85;;
62724;SDS011;49026;52.600;4.694;2022-11-15T08:00:39;24.40;;;10.57;;
62724;SDS011;49026;52.600;4.694;2022-11-15T08:03:08;25.20;;;11.70;;
62724;SDS011;49026;52.600;4.694;2022-11-15T08:05:36;14.35;;;8.85;;
62724;SDS011;49026;52.600;4.694;2022-11-15T08:08:02;20.10;;;11.20;;
62724;SDS011;49026;52.600;4.694;2022-11-15T08:10:28;20.02;;;10.88;;
62724;SDS011;49026;52.600;4.694;2022-11-15T08:13:01;17.33;;;10.15;;
62724;SDS011;49026;52.600;4.694;2022-11-15T08:15:28;21.00;;;9.82;;
62724;SDS011;49026;52.600;4.694;2022-11-15T08:17:54;19.50;;;9.80;;
62724;SDS011;49026;52.600;4.694;2022-11-15T08:22:50;18.20;;;8.48;;
62724;SDS011;49026;52.600;4.694;2022-11-15T08:25:16;13.70;;;6.65;;
62724;SDS011;49026;52.600;4.694;2022-11-15T08:27:41;9.93;;;5.72;;
62724;SDS011;49026;52.600;4.694;2022-11-15T08:30:07;14.38;;;7.07;;
62724;SDS011;49026;52.600;4.694;2022-11-15T08:32:33;11.95;;;5.90;;
62724;SDS011;49026;52.600;4.694;2022-11-15T08:34:58;11.20;;;5.47;;
62724;SDS011;49026;52.600;4.694;2022-11-15T08:37:24;9.30;;;5.18;;
62724;SDS011;49026;52.600;4.694;2022-11-15T08:39:49;18.02;;;5.38;;
62724;SDS011;49026;52.600;4.694;2022-11-15T08:42:14;13.88;;;5.30;;
62724;SDS011;49026;52.600;4.694;2022-11-15T08:44:41;12.05;;;5.65;;
62724;SDS011;49026;52.600;4.694;2022-11-15T08:47:06;11.35;;;5.30;;
62724;SDS011;49026;52.600;4.694;2022-11-15T08:49:32;10.10;;;4.97;;
62724;SDS011;49026;52.600;4.694;2022-11-15T08:51:57;14.38;;;6.28;;
62724;SDS011;49026;52.600;4.694;2022-11-15T08:54:22;11.05;;;5.00;;
62724;SDS011;49026;52.600;4.694;2022-11-15T08:56:48;11.23;;;5.72;;
62724;SDS011;49026;52.600;4.694;2022-11-15T08:59:13;12.88;;;5.80;;
62724;SDS011;49026;52.600;4.694;2022-11-15T09:01:38;9.13;;;5.00;;
62724;SDS011;49026;52.600;4.694;2022-11-15T09:04:04;12.98;;;5.75;;
62724;SDS011;49026;52.600;4.694;2022-11-15T09:06:29;8.88;;;4.20;;
62724;SDS011;49026;52.600;4.694;2022-11-15T09:08:55;12.38;;;4.72;;
62724;SDS011;49026;52.600;4.694;2022-11-15T09:11:21;14.27;;;4.30;;
62724;SDS011;49026;52.600;4.694;2022-11-15T09:13:48;11.38;;;5.07;;
62724;SDS011;49026;52.600;4.694;2022-11-15T09:16:14;13.10;;;5.25;;
62724;SDS011;49026;52.600;4.694;2022-11-15T09:18:40;10.60;;;5.20;;
62724;SDS011;49026;52.600;4.694;2022-11-15T09:21:06;10.25;;;5.00;;
62724;SDS011;49026;52.600;4.694;2022-11-15T09:23:32;10.02;;;5.20;;
62724;SDS011;49026;52.600;4.694;2022-11-15T09:25:58;15.35;;;5.75;;
62724;SDS011;49026;52.600;4.694;2022-11-15T09:28:26;12.27;;;4.85;;
62724;SDS011;49026;52.600;4.694;2022-11-15T09:30:55;9.10;;;4.88;;
62724;SDS011;49026;52.600;4.694;2022-11-15T09:33:24;10.65;;;4.88;;
62724;SDS011;49026;52.600;4.694;2022-11-15T09:35:49;9.18;;;5.40;;
62724;SDS011;49026;52.600;4.694;2022-11-15T09:38:14;7.88;;;4.63;;
62724;SDS011;49026;52.600;4.694;2022-11-15T09:40:40;13.10;;;5.60;;
62724;SDS011;49026;52.600;4.694;2022-11-15T09:46:21;8.00;;;3.95;;
62724;SDS011;49026;52.600;4.694;2022-11-15T09:48:57;9.90;;;4.97;;
62724;SDS011;49026;52.600;4.694;2022-11-15T09:51:44;10.88;;;5.32;;
62724;SDS011;49026;52.600;4.694;2022-11-15T09:57:06;11.25;;;5.18;;
62724;SDS011;49026;52.600;4.694;2022-11-15T10:02:33;12.23;;;5.25;;
62724;SDS011;49026;52.600;4.694;2022-11-15T10:05:01;8.60;;;3.80;;
62724;SDS011;49026;52.600;4.694;2022-11-15T10:07:31;10.18;;;5.68;;
62724;SDS011;49026;52.600;4.694;2022-11-15T10:10:10;12.00;;;4.90;;
62724;SDS011;49026;52.600;4.694;2022-11-15T10:12:41;10.60;;;4.30;;
62724;SDS011;49026;52.600;4.694;2022-11-15T10:15:13;8.57;;;4.40;;
62724;SDS011;49026;52.600;4.694;2022-11-15T10:20:28;6.38;;;2.92;;
62724;SDS011;49026;52.600;4.694;2022-11-15T10:25:41;11.20;;;3.63;;
62724;SDS011;49026;52.600;4.694;2022-11-15T10:28:09;11.40;;;3.67;;
62724;SDS011;49026;52.600;4.694;2022-11-15T10:30:41;6.93;;;4.03;;
62724;SDS011;49026;52.600;4.694;2022-11-15T10:33:25;9.57;;;3.55;;
62724;SDS011;49026;52.600;4.694;2022-11-15T10:36:20;7.85;;;3.85;;
62724;SDS011;49026;52.600;4.694;2022-11-15T10:41:37;9.00;;;3.17;;
62724;SDS011;49026;52.600;4.694;2022-11-15T10:46:46;6.00;;;3.30;;
62724;SDS011;49026;52.600;4.694;2022-11-15T10:52:02;5.72;;;3.15;;
62724;SDS011;49026;52.600;4.694;2022-11-15T10:54:39;7.57;;;3.58;;
62724;SDS011;49026;52.600;4.694;2022-11-15T10:57:10;8.60;;;3.38;;
62724;SDS011;49026;52.600;4.694;2022-11-15T10:59:39;10.02;;;3.55;;
62724;SDS011;49026;52.600;4.694;2022-11-15T11:05:00;6.03;;;3.35;;
62724;SDS011;49026;52.600;4.694;2022-11-15T11:07:28;7.45;;;3.83;;
62724;SDS011;49026;52.600;4.694;2022-11-15T11:09:59;7.05;;;3.10;;
62724;SDS011;49026;52.600;4.694;2022-11-15T11:12:29;10.30;;;3.60;;
62724;SDS011;49026;52.600;4.694;2022-11-15T11:14:57;7.35;;;3.08;;
62724;SDS011;49026;52.600;4.694;2022-11-15T11:20:25;9.77;;;3.47;;
62724;SDS011;49026;52.600;4.694;2022-11-15T11:25:46;7.93;;;3.65;;
62724;SDS011;49026;52.600;4.694;2022-11-15T11:36:57;6.90;;;2.53;;
62724;SDS011;49026;52.600;4.694;2022-11-15T11:39:51;10.88;;;2.80;;
62724;SDS011;49026;52.600;4.694;2022-11-15T11:45:19;4.13;;;2.22;;
62724;SDS011;49026;52.600;4.694;2022-11-15T11:48:38;7.22;;;2.85;;
62724;SDS011;49026;52.600;4.694;2022-11-15T11:50:42;6.60;;;2.45;;
62724;SDS011;49026;52.600;4.694;2022-11-15T11:53:27;10.95;;;2.92;;
62724;SDS011;49026;52.600;4.694;2022-11-15T11:56:04;8.10;;;2.58;;
62724;SDS011;49026;52.600;4.694;2022-11-15T11:58:43;6.60;;;2.75;;
62724;SDS011;49026;52.600;4.694;2022-11-15T12:11:56;6.85;;;2.03;;
62724;SDS011;49026;52.600;4.694;2022-11-15T12:14:29;6.55;;;2.55;;
62724;SDS011;49026;52.600;4.694;2022-11-15T12:16:58;4.20;;;2.13;;
62724;SDS011;49026;52.600;4.694;2022-11-15T12:19:25;4.60;;;1.70;;
62724;SDS011;49026;52.600;4.694;2022-11-15T12:27:08;5.68;;;1.88;;
62724;SDS011;49026;52.600;4.694;2022-11-15T12:29:43;10.90;;;2.40;;
62724;SDS011;49026;52.600;4.694;2022-11-15T12:32:18;6.03;;;1.80;;
62724;SDS011;49026;52.600;4.694;2022-11-15T12:34:51;8.38;;;1.75;;
62724;SDS011;49026;52.600;4.694;2022-11-15T12:38:02;4.95;;;1.80;;
62724;SDS011;49026;52.600;4.694;2022-11-15T12:42:41;4.45;;;1.75;;
62724;SDS011;49026;52.600;4.694;2022-11-15T12:45:23;3.63;;;1.50;;
62724;SDS011;49026;52.600;4.694;2022-11-15T12:53:31;4.85;;;1.92;;
62724;SDS011;49026;52.600;4.694;2022-11-15T13:19:48;6.22;;;1.27;;
62724;SDS011;49026;52.600;4.694;2022-11-15T13:22:18;3.92;;;1.30;;
62724;SDS011;49026;52.600;4.694;2022-11-15T13:25:02;10.20;;;1.98;;
62724;SDS011;49026;52.600;4.694;2022-11-15T13:27:28;6.82;;;1.67;;
62724;SDS011;49026;52.600;4.694;2022-11-15T13:29:54;6.78;;;1.33;;
62724;SDS011;49026;52.600;4.694;2022-11-15T13:32:19;3.63;;;1.25;;
62724;SDS011;49026;52.600;4.694;2022-11-15T13:34:46;3.75;;;1.23;;
62724;SDS011;49026;52.600;4.694;2022-11-15T13:39:46;6.47;;;1.60;;
62724;SDS011;49026;52.600;4.694;2022-11-15T13:42:16;9.73;;;1.63;;
62724;SDS011;49026;52.600;4.694;2022-11-15T13:44:56;3.65;;;0.95;;
62724;SDS011;49026;52.600;4.694;2022-11-15T13:47:26;6.45;;;1.02;;
62724;SDS011;49026;52.600;4.694;2022-11-15T13:49:52;4.82;;;1.10;;
62724;SDS011;49026;52.600;4.694;2022-11-15T13:52:18;6.88;;;1.40;;
62724;SDS011;49026;52.600;4.694;2022-11-15T13:57:38;5.78;;;1.20;;
62724;SDS011;49026;52.600;4.694;2022-11-15T14:02:56;6.30;;;1.15;;
62724;SDS011;49026;52.600;4.694;2022-11-15T14:05:30;4.20;;;0.90;;
62724;SDS011;49026;52.600;4.694;2022-11-15T14:07:56;6.60;;;1.40;;
62724;SDS011;49026;52.600;4.694;2022-11-15T14:10:30;5.55;;;1.33;;
62724;SDS011;49026;52.600;4.694;2022-11-15T14:12:58;7.45;;;1.65;;
62724;SDS011;49026;52.600;4.694;2022-11-15T14:15:25;6.43;;;1.08;;
62724;SDS011;49026;52.600;4.694;2022-11-15T14:17:54;5.93;;;1.08;;
62724;SDS011;49026;52.600;4.694;2022-11-15T14:20:29;6.15;;;1.23;;
62724;SDS011;49026;52.600;4.694;2022-11-15T14:22:58;2.95;;;0.82;;
62724;SDS011;49026;52.600;4.694;2022-11-15T14:25:26;6.70;;;1.00;;
62724;SDS011;49026;52.600;4.694;2022-11-15T14:30:53;2.28;;;0.60;;
62724;SDS011;49026;52.600;4.694;2022-11-15T14:35:58;1.48;;;0.80;;
62724;SDS011;49026;52.600;4.694;2022-11-15T14:38:29;7.20;;;1.27;;
62724;SDS011;49026;52.600;4.694;2022-11-15T14:40:56;6.78;;;1.20;;
62724;SDS011;49026;52.600;4.694;2022-11-15T14:43:25;2.47;;;0.90;;
62724;SDS011;49026;52.600;4.694;2022-11-15T14:45:50;3.50;;;0.93;;
62724;SDS011;49026;52.600;4.694;2022-11-15T14:48:16;7.03;;;1.40;;
62724;SDS011;49026;52.600;4.694;2022-11-15T14:50:41;2.92;;;1.20;;
62724;SDS011;49026;52.600;4.694;2022-11-15T14:53:11;3.95;;;0.95;;
62724;SDS011;49026;52.600;4.694;2022-11-15T14:55:38;2.35;;;0.80;;
62724;SDS011;49026;52.600;4.694;2022-11-15T14:58:04;2.38;;;0.77;;
62724;SDS011;49026;52.600;4.694;2022-11-15T15:00:32;3.13;;;1.45;;
62724;SDS011;49026;52.600;4.694;2022-11-15T15:02:59;4.38;;;1.15;;
62724;SDS011;49026;52.600;4.694;2022-11-15T15:05:27;9.57;;;1.38;;
62724;SDS011;49026;52.600;4.694;2022-11-15T15:08:01;2.50;;;0.85;;
62724;SDS011;49026;52.600;4.694;2022-11-15T15:10:27;7.15;;;1.15;;
62724;SDS011;49026;52.600;4.694;2022-11-15T15:12:58;7.28;;;1.33;;
62724;SDS011;49026;52.600;4.694;2022-11-15T15:15:24;6.18;;;1.30;;
62724;SDS011;49026;52.600;4.694;2022-11-15T15:17:54;4.00;;;0.90;;
62724;SDS011;49026;52.600;4.694;2022-11-15T15:20:21;4.43;;;1.00;;
62724;SDS011;49026;52.600;4.694;2022-11-15T15:22:51;1.83;;;0.70;;
62724;SDS011;49026;52.600;4.694;2022-11-15T15:27:53;1.98;;;0.75;;
62724;SDS011;49026;52.600;4.694;2022-11-15T15:30:19;5.15;;;1.40;;
62724;SDS011;49026;52.600;4.694;2022-11-15T15:32:46;4.72;;;1.20;;
62724;SDS011;49026;52.600;4.694;2022-11-15T15:35:14;4.47;;;1.23;;
62724;SDS011;49026;52.600;4.694;2022-11-15T15:37:41;2.42;;;0.98;;
62724;SDS011;49026;52.600;4.694;2022-11-15T15:40:10;6.13;;;1.60;;
62724;SDS011;49026;52.600;4.694;2022-11-15T15:42:38;6.10;;;1.83;;
62724;SDS011;49026;52.600;4.694;2022-11-15T15:45:04;3.95;;;1.50;;
62724;SDS011;49026;52.600;4.694;2022-11-15T15:47:31;6.30;;;1.20;;
62724;SDS011;49026;52.600;4.694;2022-11-15T15:49:59;6.70;;;1.20;;
62724;SDS011;49026;52.600;4.694;2022-11-15T15:54:52;3.03;;;1.20;;
62724;SDS011;49026;52.600;4.694;2022-11-15T15:57:17;10.32;;;2.03;;
62724;SDS011;49026;52.600;4.694;2022-11-15T15:59:43;3.38;;;1.10;;
62724;SDS011;49026;52.600;4.694;2022-11-15T16:02:10;1.80;;;1.05;;
62724;SDS011;49026;52.600;4.694;2022-11-15T16:04:39;8.90;;;1.98;;
62724;SDS011;49026;52.600;4.694;2022-11-15T16:07:05;7.95;;;1.33;;
62724;SDS011;49026;52.600;4.694;2022-11-15T16:09:30;8.00;;;1.70;;
62724;SDS011;49026;52.600;4.694;2022-11-15T16:12:14;7.97;;;2.00;;
62724;SDS011;49026;52.600;4.694;2022-11-15T16:14:41;4.47;;;1.58;;
62724;SDS011;49026;52.600;4.694;2022-11-15T16:17:08;8.95;;;1.80;;
62724;SDS011;49026;52.600;4.694;2022-11-15T16:19:43;2.55;;;1.33;;
62724;SDS011;49026;52.600;4.694;2022-11-15T16:22:08;5.78;;;2.10;;
62724;SDS011;49026;52.600;4.694;2022-11-15T16:24:33;6.70;;;1.52;;
62724;SDS011;49026;52.600;4.694;2022-11-15T16:26:59;6.18;;;1.45;;
62724;SDS011;49026;52.600;4.694;2022-11-15T16:29:24;9.10;;;1.65;;
62724;SDS011;49026;52.600;4.694;2022-11-15T16:31:50;6.55;;;1.92;;
62724;SDS011;49026;52.600;4.694;2022-11-15T16:34:15;5.70;;;1.60;;
62724;SDS011;49026;52.600;4.694;2022-11-15T16:36:41;6.65;;;1.70;;
62724;SDS011;49026;52.600;4.694;2022-11-15T16:39:08;3.17;;;1.25;;
62724;SDS011;49026;52.600;4.694;2022-11-15T16:41:38;5.85;;;1.55;;
62724;SDS011;49026;52.600;4.694;2022-11-15T16:44:03;7.78;;;1.92;;
62724;SDS011;49026;52.600;4.694;2022-11-15T16:46:28;5.82;;;1.77;;
62724;SDS011;49026;52.600;4.694;2022-11-15T16:48:54;1.52;;;1.10;;
62724;SDS011;49026;52.600;4.694;2022-11-15T16:51:19;6.93;;;1.77;;
62724;SDS011;49026;52.600;4.694;2022-11-15T16:53:45;4.25;;;1.35;;
62724;SDS011;49026;52.600;4.694;2022-11-15T16:56:22;4.40;;;1.35;;
62724;SDS011;49026;52.600;4.694;2022-11-15T16:58:49;4.93;;;2.05;;
62724;SDS011;49026;52.600;4.694;2022-11-15T17:01:19;4.40;;;2.25;;
62724;SDS011;49026;52.600;4.694;2022-11-15T17:03:47;10.77;;;1.63;;
62724;SDS011;49026;52.600;4.694;2022-11-15T17:06:13;3.50;;;1.50;;
62724;SDS011;49026;52.600;4.694;2022-11-15T17:08:41;7.45;;;1.80;;